Back to Top

Language: 

My Weather Underground Personal Weather Station Historical Data with Graphs...

Delerius Weather Station Historical Data
Daily Summary for April 19, 2017 Units:  Both    English   Metric
« Previous Day
Next Day »
Daily Weekly Monthly Yearly Custom
  High: Low: Average:
Temperature: 55.2 °F /  12.9 °C 39.9 °F /  4.4 °C 48.2 °F /  9 °C
Dew Point: 41.5 °F /  5.3 °C 35.8 °F /  2.1 °C 38.1 °F /  3.4 °C
Humidity: 88 % 49 % 69 %
Wind Speed: 8.0 mph /  12.9 km/h - 2.9 mph /  4.7 km/h
Wind Gust: 14.0 mph /  22.5 km/h - -
Wind:- - SW
Pressure: 30.63 in /  1037.1 hPa 30.55 in /  1034.4 hPa -
Precipitation: 0.00 in /  0 mm    
Historical Graphs
 
 
Tabular Data for April 19, 2017
Time Temperature Dew Point Pressure Wind Wind Speed Wind Gust Humidity Rainfall Rate (Hourly) solar Conditions
00:04 43.3 °F /  6.3 °C 37.6 °F /  3.1 °C 30.60 in /  1036.1 hPa SE 2.0 mph /  3.2 km/h 5.0 mph /  8 km/h 80 % 0.00 in /  0 mm 0 W/m2
00:09 43.3 °F /  6.3 °C 37.6 °F /  3.1 °C 30.60 in /  1036.1 hPa SE 1.0 mph /  1.6 km/h 5.0 mph /  8 km/h 80 % 0.00 in /  0 mm 0 W/m2
00:14 43.3 °F /  6.3 °C 37.6 °F /  3.1 °C 30.60 in /  1036.1 hPa SE 1.0 mph /  1.6 km/h 3.0 mph /  4.8 km/h 80 % 0.00 in /  0 mm 0 W/m2
00:19 43.3 °F /  6.3 °C 37.6 °F /  3.1 °C 30.60 in /  1036.1 hPa SE 1.0 mph /  1.6 km/h 3.0 mph /  4.8 km/h 80 % 0.00 in /  0 mm 0 W/m2
00:24 43.3 °F /  6.3 °C 37.9 °F /  3.3 °C 30.60 in /  1036.1 hPa Calm   3.0 mph /  4.8 km/h 81 % 0.00 in /  0 mm 0 W/m2
00:29 43.3 °F /  6.3 °C 37.9 °F /  3.3 °C 30.60 in /  1036.1 hPa Calm   1.0 mph /  1.6 km/h 81 % 0.00 in /  0 mm 0 W/m2
00:35 43.3 °F /  6.3 °C 37.9 °F /  3.3 °C 30.61 in /  1036.5 hPa Calm   2.0 mph /  3.2 km/h 81 % 0.00 in /  0 mm 0 W/m2
00:40 43.3 °F /  6.3 °C 37.9 °F /  3.3 °C 30.61 in /  1036.5 hPa Calm   2.0 mph /  3.2 km/h 81 % 0.00 in /  0 mm 0 W/m2
00:45 43.3 °F /  6.3 °C 37.9 °F /  3.3 °C 30.61 in /  1036.5 hPa Calm   1.0 mph /  1.6 km/h 81 % 0.00 in /  0 mm 0 W/m2
00:50 43.2 °F /  6.2 °C 37.7 °F /  3.2 °C 30.61 in /  1036.5 hPa Calm   2.0 mph /  3.2 km/h 81 % 0.00 in /  0 mm 0 W/m2
00:55 43.0 °F /  6.1 °C 37.5 °F /  3.1 °C 30.61 in /  1036.5 hPa Calm   2.0 mph /  3.2 km/h 81 % 0.00 in /  0 mm 0 W/m2
01:00 43.0 °F /  6.1 °C 37.9 °F /  3.3 °C 30.61 in /  1036.5 hPa SE 1.0 mph /  1.6 km/h 5.0 mph /  8 km/h 82 % 0.00 in /  0 mm 0 W/m2
01:05 43.0 °F /  6.1 °C 37.9 °F /  3.3 °C 30.61 in /  1036.5 hPa Calm   5.0 mph /  8 km/h 82 % 0.00 in /  0 mm 0 W/m2
01:10 43.0 °F /  6.1 °C 37.9 °F /  3.3 °C 30.61 in /  1036.5 hPa Calm   3.0 mph /  4.8 km/h 82 % 0.00 in /  0 mm 0 W/m2
01:15 42.8 °F /  6 °C 37.7 °F /  3.2 °C 30.61 in /  1036.5 hPa SE 1.0 mph /  1.6 km/h 4.0 mph /  6.4 km/h 82 % 0.00 in /  0 mm 0 W/m2
01:20 42.8 °F /  6 °C 37.7 °F /  3.2 °C 30.61 in /  1036.5 hPa SE 1.0 mph /  1.6 km/h 4.0 mph /  6.4 km/h 82 % 0.00 in /  0 mm 0 W/m2
01:25 42.8 °F /  6 °C 37.7 °F /  3.2 °C 30.61 in /  1036.5 hPa SE 1.0 mph /  1.6 km/h 4.0 mph /  6.4 km/h 82 % 0.00 in /  0 mm 0 W/m2
01:30 42.8 °F /  6 °C 37.7 °F /  3.2 °C 30.61 in /  1036.5 hPa SE 1.0 mph /  1.6 km/h 4.0 mph /  6.4 km/h 82 % 0.00 in /  0 mm 0 W/m2
01:35 42.8 °F /  6 °C 37.7 °F /  3.2 °C 30.61 in /  1036.5 hPa Calm   2.0 mph /  3.2 km/h 82 % 0.00 in /  0 mm 0 W/m2
01:40 42.8 °F /  6 °C 37.7 °F /  3.2 °C 30.61 in /  1036.5 hPa Calm     82 % 0.00 in /  0 mm 0 W/m2
01:45 42.8 °F /  6 °C 38.0 °F /  3.3 °C 30.61 in /  1036.5 hPa Calm     83 % 0.00 in /  0 mm 0 W/m2
01:50 42.8 °F /  6 °C 37.7 °F /  3.2 °C 30.61 in /  1036.5 hPa Calm   2.0 mph /  3.2 km/h 82 % 0.00 in /  0 mm 0 W/m2
01:55 42.6 °F /  5.9 °C 37.5 °F /  3.1 °C 30.61 in /  1036.5 hPa Calm   3.0 mph /  4.8 km/h 82 % 0.00 in /  0 mm 0 W/m2
02:00 42.6 °F /  5.9 °C 37.8 °F /  3.2 °C 30.60 in /  1036.1 hPa SE 1.0 mph /  1.6 km/h 5.0 mph /  8 km/h 83 % 0.00 in /  0 mm 0 W/m2
02:05 42.6 °F /  5.9 °C 37.8 °F /  3.2 °C 30.60 in /  1036.1 hPa SE 1.0 mph /  1.6 km/h 5.0 mph /  8 km/h 83 % 0.00 in /  0 mm 0 W/m2
02:10 42.4 °F /  5.8 °C 37.6 °F /  3.1 °C 30.60 in /  1036.1 hPa SE 1.0 mph /  1.6 km/h 4.0 mph /  6.4 km/h 83 % 0.00 in /  0 mm 0 W/m2
02:15 42.4 °F /  5.8 °C 37.6 °F /  3.1 °C 30.60 in /  1036.1 hPa SE 1.0 mph /  1.6 km/h 4.0 mph /  6.4 km/h 83 % 0.00 in /  0 mm 0 W/m2
02:20 42.3 °F /  5.7 °C 37.5 °F /  3.1 °C 30.60 in /  1036.1 hPa SE 1.0 mph /  1.6 km/h 4.0 mph /  6.4 km/h 83 % 0.00 in /  0 mm 0 W/m2
02:25 42.3 °F /  5.7 °C 37.5 °F /  3.1 °C 30.60 in /  1036.1 hPa SE 1.0 mph /  1.6 km/h 5.0 mph /  8 km/h 83 % 0.00 in /  0 mm 0 W/m2
02:30 42.1 °F /  5.6 °C 37.3 °F /  2.9 °C 30.60 in /  1036.1 hPa SSE 1.0 mph /  1.6 km/h 5.0 mph /  8 km/h 83 % 0.00 in /  0 mm 0 W/m2
02:35 41.9 °F /  5.5 °C 37.1 °F /  2.8 °C 30.60 in /  1036.1 hPa SSE 1.0 mph /  1.6 km/h 2.0 mph /  3.2 km/h 83 % 0.00 in /  0 mm 0 W/m2
02:40 41.7 °F /  5.4 °C 36.9 °F /  2.7 °C 30.60 in /  1036.1 hPa SSE 1.0 mph /  1.6 km/h 2.0 mph /  3.2 km/h 83 % 0.00 in /  0 mm 0 W/m2
02:45 41.4 °F /  5.2 °C 36.6 °F /  2.6 °C 30.60 in /  1036.1 hPa Calm   2.0 mph /  3.2 km/h 83 % 0.00 in /  0 mm 0 W/m2
02:50 41.0 °F /  5 °C 36.2 °F /  2.3 °C 30.60 in /  1036.1 hPa Calm   1.0 mph /  1.6 km/h 83 % 0.00 in /  0 mm 0 W/m2
02:55 40.6 °F /  4.8 °C 36.2 °F /  2.3 °C 30.60 in /  1036.1 hPa Calm     84 % 0.00 in /  0 mm 0 W/m2
02:58 40.6 °F /  4.8 °C 36.2 °F /  2.3 °C 30.60 in /  1036.1 hPa Calm     84 % 0.00 in /  0 mm 0 W/m2
03:03 40.3 °F /  4.6 °C 35.8 °F /  2.1 °C 30.60 in /  1036.1 hPa Calm     84 % 0.00 in /  0 mm 0 W/m2
03:08 40.1 °F /  4.5 °C 36.0 °F /  2.2 °C 30.60 in /  1036.1 hPa Calm     85 % 0.00 in /  0 mm 0 W/m2
03:13 39.9 °F /  4.4 °C 35.8 °F /  2.1 °C 30.59 in /  1035.8 hPa Calm     85 % 0.00 in /  0 mm 0 W/m2
03:18 39.9 °F /  4.4 °C 36.1 °F /  2.3 °C 30.59 in /  1035.8 hPa Calm     86 % 0.00 in /  0 mm 0 W/m2
03:23 39.9 °F /  4.4 °C 36.4 °F /  2.4 °C 30.59 in /  1035.8 hPa Calm   2.0 mph /  3.2 km/h 87 % 0.00 in /  0 mm 0 W/m2
03:28 39.9 °F /  4.4 °C 36.4 °F /  2.4 °C 30.59 in /  1035.8 hPa Calm   2.0 mph /  3.2 km/h 87 % 0.00 in /  0 mm 0 W/m2
03:33 39.9 °F /  4.4 °C 36.4 °F /  2.4 °C 30.59 in /  1035.8 hPa Calm     87 % 0.00 in /  0 mm 0 W/m2
03:38 39.9 °F /  4.4 °C 36.4 °F /  2.4 °C 30.59 in /  1035.8 hPa Calm     87 % 0.00 in /  0 mm 0 W/m2
03:43 39.9 °F /  4.4 °C 36.7 °F /  2.6 °C 30.59 in /  1035.8 hPa Calm     88 % 0.00 in /  0 mm 0 W/m2
03:48 40.1 °F /  4.5 °C 36.8 °F /  2.7 °C 30.59 in /  1035.8 hPa Calm   4.0 mph /  6.4 km/h 88 % 0.00 in /  0 mm 0 W/m2
03:53 40.3 °F /  4.6 °C 37.0 °F /  2.8 °C 30.59 in /  1035.8 hPa Calm   4.0 mph /  6.4 km/h 88 % 0.00 in /  0 mm 0 W/m2
03:58 40.3 °F /  4.6 °C 37.0 °F /  2.8 °C 30.59 in /  1035.8 hPa Calm   1.0 mph /  1.6 km/h 88 % 0.00 in /  0 mm 0 W/m2
04:03 40.3 °F /  4.6 °C 36.7 °F /  2.6 °C 30.59 in /  1035.8 hPa Calm     87 % 0.00 in /  0 mm 0 W/m2
04:08 40.3 °F /  4.6 °C 37.0 °F /  2.8 °C 30.59 in /  1035.8 hPa Calm   1.0 mph /  1.6 km/h 88 % 0.00 in /  0 mm 0 W/m2
04:13 40.5 °F /  4.7 °C 37.2 °F /  2.9 °C 30.60 in /  1036.1 hPa Calm   1.0 mph /  1.6 km/h 88 % 0.00 in /  0 mm 0 W/m2
04:18 40.5 °F /  4.7 °C 36.9 °F /  2.7 °C 30.60 in /  1036.1 hPa Calm     87 % 0.00 in /  0 mm 0 W/m2
04:23 40.5 °F /  4.7 °C 36.9 °F /  2.7 °C 30.60 in /  1036.1 hPa Calm     87 % 0.00 in /  0 mm 0 W/m2
04:24 40.5 °F /  4.7 °C 36.9 °F /  2.7 °C 30.60 in /  1036.1 hPa Calm     87 % 0.00 in /  0 mm 0 W/m2
04:29 40.5 °F /  4.7 °C 36.9 °F /  2.7 °C 30.60 in /  1036.1 hPa Calm   1.0 mph /  1.6 km/h 87 % 0.00 in /  0 mm 0 W/m2
04:34 40.5 °F /  4.7 °C 36.9 °F /  2.7 °C 30.60 in /  1036.1 hPa Calm   1.0 mph /  1.6 km/h 87 % 0.00 in /  0 mm 0 W/m2
04:39 40.5 °F /  4.7 °C 37.2 °F /  2.9 °C 30.60 in /  1036.1 hPa Calm   2.0 mph /  3.2 km/h 88 % 0.00 in /  0 mm 0 W/m2
04:44 40.5 °F /  4.7 °C 37.2 °F /  2.9 °C 30.60 in /  1036.1 hPa Calm   4.0 mph /  6.4 km/h 88 % 0.00 in /  0 mm 0 W/m2
04:49 40.6 °F /  4.8 °C 37.4 °F /  3 °C 30.60 in /  1036.1 hPa SSE 1.0 mph /  1.6 km/h 4.0 mph /  6.4 km/h 88 % 0.00 in /  0 mm 0 W/m2
04:54 40.6 °F /  4.8 °C 37.4 °F /  3 °C 30.60 in /  1036.1 hPa SSE 1.0 mph /  1.6 km/h 4.0 mph /  6.4 km/h 88 % 0.00 in /  0 mm 0 W/m2
04:59 40.8 °F /  4.9 °C 37.3 °F /  2.9 °C 30.60 in /  1036.1 hPa Calm   4.0 mph /  6.4 km/h 87 % 0.00 in /  0 mm 0 W/m2
05:04 40.8 °F /  4.9 °C 37.3 °F /  2.9 °C 30.60 in /  1036.1 hPa Calm   3.0 mph /  4.8 km/h 87 % 0.00 in /  0 mm 0 W/m2
05:09 40.8 °F /  4.9 °C 37.3 °F /  2.9 °C 30.60 in /  1036.1 hPa Calm   3.0 mph /  4.8 km/h 87 % 0.00 in /  0 mm 0 W/m2
05:14 40.8 °F /  4.9 °C 37.3 °F /  2.9 °C 30.60 in /  1036.1 hPa Calm   1.0 mph /  1.6 km/h 87 % 0.00 in /  0 mm 0 W/m2
05:19 40.8 °F /  4.9 °C 37.3 °F /  2.9 °C 30.60 in /  1036.1 hPa Calm     87 % 0.00 in /  0 mm 0 W/m2
05:24 41.0 °F /  5 °C 37.4 °F /  3 °C 30.60 in /  1036.1 hPa Calm     87 % 0.00 in /  0 mm 0 W/m2
05:29 41.0 °F /  5 °C 37.1 °F /  2.8 °C 30.60 in /  1036.1 hPa SSE 1.0 mph /  1.6 km/h 5.0 mph /  8 km/h 86 % 0.00 in /  0 mm 0 W/m2
05:34 41.0 °F /  5 °C 37.1 °F /  2.8 °C 30.60 in /  1036.1 hPa SSE 1.0 mph /  1.6 km/h 5.0 mph /  8 km/h 86 % 0.00 in /  0 mm 0 W/m2
05:39 41.0 °F /  5 °C 37.1 °F /  2.8 °C 30.60 in /  1036.1 hPa SSE 1.0 mph /  1.6 km/h 5.0 mph /  8 km/h 86 % 0.00 in /  0 mm 0 W/m2
05:44 41.0 °F /  5 °C 37.1 °F /  2.8 °C 30.60 in /  1036.1 hPa Calm   5.0 mph /  8 km/h 86 % 0.00 in /  0 mm 0 W/m2
05:49 41.0 °F /  5 °C 37.1 °F /  2.8 °C 30.60 in /  1036.1 hPa Calm   2.0 mph /  3.2 km/h 86 % 0.00 in /  0 mm 0 W/m2
05:50 41.0 °F /  5 °C 37.1 °F /  2.8 °C 30.60 in /  1036.1 hPa Calm   3.0 mph /  4.8 km/h 86 % 0.00 in /  0 mm 0 W/m2
05:55 41.0 °F /  5 °C 37.1 °F /  2.8 °C 30.60 in /  1036.1 hPa South 1.0 mph /  1.6 km/h 4.0 mph /  6.4 km/h 86 % 0.00 in /  0 mm 5 W/m2
06:00 41.0 °F /  5 °C 37.1 °F /  2.8 °C 30.60 in /  1036.1 hPa SSW 1.0 mph /  1.6 km/h 6.0 mph /  9.7 km/h 86 % 0.00 in /  0 mm 7 W/m2
06:05 41.0 °F /  5 °C 37.1 °F /  2.8 °C 30.59 in /  1035.8 hPa SSW 2.0 mph /  3.2 km/h 6.0 mph /  9.7 km/h 86 % 0.00 in /  0 mm 9 W/m2
06:10 40.8 °F /  4.9 °C 37.0 °F /  2.8 °C 30.60 in /  1036.1 hPa SSW 1.0 mph /  1.6 km/h 6.0 mph /  9.7 km/h 86 % 0.00 in /  0 mm 12 W/m2
06:15 40.8 °F /  4.9 °C 37.0 °F /  2.8 °C 30.60 in /  1036.1 hPa Calm   6.0 mph /  9.7 km/h 86 % 0.00 in /  0 mm 16 W/m2
06:16 40.8 °F /  4.9 °C 37.0 °F /  2.8 °C 30.60 in /  1036.1 hPa Calm   1.0 mph /  1.6 km/h 86 % 0.00 in /  0 mm 16 W/m2
06:21 40.8 °F /  4.9 °C 37.0 °F /  2.8 °C 30.60 in /  1036.1 hPa Calm   4.0 mph /  6.4 km/h 86 % 0.00 in /  0 mm 23 W/m2
06:26 40.8 °F /  4.9 °C 36.7 °F /  2.6 °C 30.60 in /  1036.1 hPa Calm   4.0 mph /  6.4 km/h 85 % 0.00 in /  0 mm 30 W/m2
06:31 40.8 °F /  4.9 °C 36.7 °F /  2.6 °C 30.60 in /  1036.1 hPa SSW 1.0 mph /  1.6 km/h 5.0 mph /  8 km/h 85 % 0.00 in /  0 mm 35 W/m2
06:36 41.0 °F /  5 °C 36.8 °F /  2.7 °C 30.60 in /  1036.1 hPa SSW 1.0 mph /  1.6 km/h 5.0 mph /  8 km/h 85 % 0.00 in /  0 mm 42 W/m2
06:41 41.2 °F /  5.1 °C 36.7 °F /  2.6 °C 30.60 in /  1036.1 hPa South 1.0 mph /  1.6 km/h 5.0 mph /  8 km/h 84 % 0.00 in /  0 mm 47 W/m2
06:46 41.2 °F /  5.1 °C 36.7 °F /  2.6 °C 30.60 in /  1036.1 hPa South 1.0 mph /  1.6 km/h 5.0 mph /  8 km/h 84 % 0.00 in /  0 mm 53 W/m2
06:51 41.4 °F /  5.2 °C 36.9 °F /  2.7 °C 30.61 in /  1036.5 hPa South 1.0 mph /  1.6 km/h 5.0 mph /  8 km/h 84 % 0.00 in /  0 mm 58 W/m2
06:56 41.5 °F /  5.3 °C 36.8 °F /  2.7 °C 30.61 in /  1036.5 hPa South 1.0 mph /  1.6 km/h 5.0 mph /  8 km/h 83 % 0.00 in /  0 mm 72 W/m2
07:01 41.5 °F /  5.3 °C 36.8 °F /  2.7 °C 30.60 in /  1036.1 hPa South 2.0 mph /  3.2 km/h 7.0 mph /  11.3 km/h 83 % 0.00 in /  0 mm 86 W/m2
07:06 41.7 °F /  5.4 °C 36.9 °F /  2.7 °C 30.61 in /  1036.5 hPa South 3.0 mph /  4.8 km/h 8.0 mph /  12.9 km/h 83 % 0.00 in /  0 mm 98 W/m2
07:11 42.1 °F /  5.6 °C 37.0 °F /  2.8 °C 30.61 in /  1036.5 hPa South 3.0 mph /  4.8 km/h 8.0 mph /  12.9 km/h 82 % 0.00 in /  0 mm 156 W/m2
07:16 42.4 °F /  5.8 °C 37.3 °F /  2.9 °C 30.61 in /  1036.5 hPa South 3.0 mph /  4.8 km/h 7.0 mph /  11.3 km/h 82 % 0.00 in /  0 mm 153 W/m2
07:21 42.8 °F /  6 °C 37.4 °F /  3 °C 30.61 in /  1036.5 hPa SSW 3.0 mph /  4.8 km/h 8.0 mph /  12.9 km/h 81 % 0.00 in /  0 mm 144 W/m2
07:26 43.0 °F /  6.1 °C 37.2 °F /  2.9 °C 30.61 in /  1036.5 hPa SSW 4.0 mph /  6.4 km/h 8.0 mph /  12.9 km/h 80 % 0.00 in /  0 mm 156 W/m2
07:31 43.2 °F /  6.2 °C 37.4 °F /  3 °C 30.60 in /  1036.1 hPa South 4.0 mph /  6.4 km/h 8.0 mph /  12.9 km/h 80 % 0.00 in /  0 mm 121 W/m2
07:36 43.3 °F /  6.3 °C 37.6 °F /  3.1 °C 30.60 in /  1036.1 hPa South 5.0 mph /  8 km/h 9.0 mph /  14.5 km/h 80 % 0.00 in /  0 mm 148 W/m2
07:41 43.5 °F /  6.4 °C 37.8 °F /  3.2 °C 30.60 in /  1036.1 hPa SSW 6.0 mph /  9.7 km/h 9.0 mph /  14.5 km/h 80 % 0.00 in /  0 mm 244 W/m2
07:46 43.9 °F /  6.6 °C 37.8 °F /  3.2 °C 30.61 in /  1036.5 hPa SSW 6.0 mph /  9.7 km/h 10.0 mph /  16.1 km/h 79 % 0.00 in /  0 mm 185 W/m2
07:51 43.9 °F /  6.6 °C 37.8 °F /  3.2 °C 30.61 in /  1036.5 hPa SSW 6.0 mph /  9.7 km/h 10.0 mph /  16.1 km/h 79 % 0.00 in /  0 mm 153 W/m2
07:56 44.1 °F /  6.7 °C 37.6 °F /  3.1 °C 30.61 in /  1036.5 hPa SSW 6.0 mph /  9.7 km/h 9.0 mph /  14.5 km/h 78 % 0.00 in /  0 mm 162 W/m2
08:01 44.2 °F /  6.8 °C 37.8 °F /  3.2 °C 30.61 in /  1036.5 hPa SSW 6.0 mph /  9.7 km/h 9.0 mph /  14.5 km/h 78 % 0.00 in /  0 mm 162 W/m2
08:06 44.2 °F /  6.8 °C 37.8 °F /  3.2 °C 30.61 in /  1036.5 hPa SW 5.0 mph /  8 km/h 9.0 mph /  14.5 km/h 78 % 0.00 in /  0 mm 162 W/m2
08:11 44.4 °F /  6.9 °C 37.7 °F /  3.2 °C 30.60 in /  1036.1 hPa SSW 6.0 mph /  9.7 km/h 11.0 mph /  17.7 km/h 77 % 0.00 in /  0 mm 155 W/m2
08:17 44.6 °F /  7 °C 37.8 °F /  3.2 °C 30.61 in /  1036.5 hPa SSW 6.0 mph /  9.7 km/h 11.0 mph /  17.7 km/h 77 % 0.00 in /  0 mm 163 W/m2
08:22 44.8 °F /  7.1 °C 37.7 °F /  3.2 °C 30.61 in /  1036.5 hPa SW 6.0 mph /  9.7 km/h 11.0 mph /  17.7 km/h 76 % 0.00 in /  0 mm 174 W/m2
08:27 44.8 °F /  7.1 °C 38.0 °F /  3.3 °C 30.61 in /  1036.5 hPa SSW 6.0 mph /  9.7 km/h 11.0 mph /  17.7 km/h 77 % 0.00 in /  0 mm 174 W/m2
08:32 45.0 °F /  7.2 °C 37.8 °F /  3.2 °C 30.61 in /  1036.5 hPa SSW 5.0 mph /  8 km/h 10.0 mph /  16.1 km/h 76 % 0.00 in /  0 mm 176 W/m2
08:37 45.1 °F /  7.3 °C 38.0 °F /  3.3 °C 30.61 in /  1036.5 hPa SSW 6.0 mph /  9.7 km/h 11.0 mph /  17.7 km/h 76 % 0.00 in /  0 mm 183 W/m2
08:42 45.1 °F /  7.3 °C 37.7 °F /  3.2 °C 30.61 in /  1036.5 hPa SSW 5.0 mph /  8 km/h 11.0 mph /  17.7 km/h 75 % 0.00 in /  0 mm 185 W/m2
08:47 45.3 °F /  7.4 °C 37.9 °F /  3.3 °C 30.61 in /  1036.5 hPa SSW 5.0 mph /  8 km/h 10.0 mph /  16.1 km/h 75 % 0.00 in /  0 mm 204 W/m2
08:52 45.3 °F /  7.4 °C 37.9 °F /  3.3 °C 30.61 in /  1036.5 hPa SSW 6.0 mph /  9.7 km/h 11.0 mph /  17.7 km/h 75 % 0.00 in /  0 mm 192 W/m2
08:57 45.5 °F /  7.5 °C 37.7 °F /  3.2 °C 30.61 in /  1036.5 hPa SSW 7.0 mph /  11.3 km/h 11.0 mph /  17.7 km/h 74 % 0.00 in /  0 mm 181 W/m2
09:02 45.7 °F /  7.6 °C 37.9 °F /  3.3 °C 30.61 in /  1036.5 hPa SW 7.0 mph /  11.3 km/h 11.0 mph /  17.7 km/h 74 % 0.00 in /  0 mm 204 W/m2
09:07 45.7 °F /  7.6 °C 38.2 °F /  3.4 °C 30.61 in /  1036.5 hPa SW 6.0 mph /  9.7 km/h 10.0 mph /  16.1 km/h 75 % 0.00 in /  0 mm 202 W/m2
09:12 45.9 °F /  7.7 °C 38.4 °F /  3.6 °C 30.61 in /  1036.5 hPa SW 6.0 mph /  9.7 km/h 9.0 mph /  14.5 km/h 75 % 0.00 in /  0 mm 246 W/m2
09:17 46.0 °F /  7.8 °C 38.2 °F /  3.4 °C 30.62 in /  1036.8 hPa SW 6.0 mph /  9.7 km/h 10.0 mph /  16.1 km/h 74 % 0.00 in /  0 mm 283 W/m2
09:22 46.2 °F /  7.9 °C 38.0 °F /  3.3 °C 30.62 in /  1036.8 hPa SSW 6.0 mph /  9.7 km/h 10.0 mph /  16.1 km/h 73 % 0.00 in /  0 mm 213 W/m2
09:27 46.4 °F /  8 °C 38.2 °F /  3.4 °C 30.62 in /  1036.8 hPa SSW 5.0 mph /  8 km/h 10.0 mph /  16.1 km/h 73 % 0.00 in /  0 mm 230 W/m2
09:32 46.6 °F /  8.1 °C 38.4 °F /  3.6 °C 30.61 in /  1036.5 hPa SSW 5.0 mph /  8 km/h 10.0 mph /  16.1 km/h 73 % 0.00 in /  0 mm 234 W/m2
09:37 46.8 °F /  8.2 °C 38.2 °F /  3.4 °C 30.62 in /  1036.8 hPa SSW 6.0 mph /  9.7 km/h 12.0 mph /  19.3 km/h 72 % 0.00 in /  0 mm 299 W/m2
09:42 46.9 °F /  8.3 °C 38.0 °F /  3.3 °C 30.62 in /  1036.8 hPa SW 7.0 mph /  11.3 km/h 12.0 mph /  19.3 km/h 71 % 0.00 in /  0 mm 322 W/m2
09:47 47.1 °F /  8.4 °C 37.8 °F /  3.2 °C 30.62 in /  1036.8 hPa SW 8.0 mph /  12.9 km/h 13.0 mph /  20.9 km/h 70 % 0.00 in /  0 mm 301 W/m2
09:52 47.1 °F /  8.4 °C 37.8 °F /  3.2 °C 30.62 in /  1036.8 hPa SW 8.0 mph /  12.9 km/h 13.0 mph /  20.9 km/h 70 % 0.00 in /  0 mm 278 W/m2
09:57 47.1 °F /  8.4 °C 37.8 °F /  3.2 °C 30.62 in /  1036.8 hPa SW 7.0 mph /  11.3 km/h 11.0 mph /  17.7 km/h 70 % 0.00 in /  0 mm 278 W/m2
10:02 47.5 °F /  8.6 °C 38.2 °F /  3.4 °C 30.62 in /  1036.8 hPa SW 7.0 mph /  11.3 km/h 11.0 mph /  17.7 km/h 70 % 0.00 in /  0 mm 285 W/m2
10:07 47.7 °F /  8.7 °C 38.0 °F /  3.3 °C 30.62 in /  1036.8 hPa SW 7.0 mph /  11.3 km/h 11.0 mph /  17.7 km/h 69 % 0.00 in /  0 mm 281 W/m2
10:12 47.7 °F /  8.7 °C 38.4 °F /  3.6 °C 30.62 in /  1036.8 hPa SW 6.0 mph /  9.7 km/h 11.0 mph /  17.7 km/h 70 % 0.00 in /  0 mm 301 W/m2
10:17 47.8 °F /  8.8 °C 38.2 °F /  3.4 °C 30.62 in /  1036.8 hPa SW 6.0 mph /  9.7 km/h 10.0 mph /  16.1 km/h 69 % 0.00 in /  0 mm 353 W/m2
10:23 48.0 °F /  8.9 °C 38.3 °F /  3.5 °C 30.62 in /  1036.8 hPa SSW 7.0 mph /  11.3 km/h 10.0 mph /  16.1 km/h 69 % 0.00 in /  0 mm 346 W/m2
10:28 48.0 °F /  8.9 °C 38.0 °F /  3.3 °C 30.62 in /  1036.8 hPa SSW 6.0 mph /  9.7 km/h 10.0 mph /  16.1 km/h 68 % 0.00 in /  0 mm 327 W/m2
10:33 48.4 °F /  9.1 °C 38.3 °F /  3.5 °C 30.63 in /  1037.1 hPa SSW 6.0 mph /  9.7 km/h 10.0 mph /  16.1 km/h 68 % 0.00 in /  0 mm 302 W/m2
10:38 48.6 °F /  9.2 °C 38.1 °F /  3.4 °C 30.62 in /  1036.8 hPa SSW 6.0 mph /  9.7 km/h 10.0 mph /  16.1 km/h 67 % 0.00 in /  0 mm 290 W/m2
10:43 48.7 °F /  9.3 °C 38.3 °F /  3.5 °C 30.62 in /  1036.8 hPa SSW 5.0 mph /  8 km/h 9.0 mph /  14.5 km/h 67 % 0.00 in /  0 mm 281 W/m2
10:48 48.9 °F /  9.4 °C 37.7 °F /  3.2 °C 30.62 in /  1036.8 hPa SSW 5.0 mph /  8 km/h 9.0 mph /  14.5 km/h 65 % 0.00 in /  0 mm 281 W/m2
10:53 48.9 °F /  9.4 °C 38.1 °F /  3.4 °C 30.62 in /  1036.8 hPa SSW 5.0 mph /  8 km/h 9.0 mph /  14.5 km/h 66 % 0.00 in /  0 mm 292 W/m2
10:58 49.3 °F /  9.6 °C 38.4 °F /  3.6 °C 30.62 in /  1036.8 hPa SSW 4.0 mph /  6.4 km/h 7.0 mph /  11.3 km/h 66 % 0.00 in /  0 mm 313 W/m2
11:03 49.6 °F /  9.8 °C 38.3 °F /  3.5 °C 30.62 in /  1036.8 hPa South 3.0 mph /  4.8 km/h 7.0 mph /  11.3 km/h 65 % 0.00 in /  0 mm 345 W/m2
11:08 49.8 °F /  9.9 °C 38.9 °F /  3.8 °C 30.62 in /  1036.8 hPa South 3.0 mph /  4.8 km/h 7.0 mph /  11.3 km/h 66 % 0.00 in /  0 mm 387 W/m2
11:13 50.2 °F /  10.1 °C 38.9 °F /  3.8 °C 30.62 in /  1036.8 hPa South 4.0 mph /  6.4 km/h 8.0 mph /  12.9 km/h 65 % 0.00 in /  0 mm 427 W/m2
11:18 50.4 °F /  10.2 °C 38.6 °F /  3.7 °C 30.61 in /  1036.5 hPa South 5.0 mph /  8 km/h 8.0 mph /  12.9 km/h 64 % 0.00 in /  0 mm 438 W/m2
11:23 50.7 °F /  10.4 °C 39.0 °F /  3.9 °C 30.61 in /  1036.5 hPa SSW 5.0 mph /  8 km/h 10.0 mph /  16.1 km/h 64 % 0.00 in /  0 mm 506 W/m2
11:28 51.1 °F /  10.6 °C 38.9 °F /  3.8 °C 30.61 in /  1036.5 hPa SSW 5.0 mph /  8 km/h 10.0 mph /  16.1 km/h 63 % 0.00 in /  0 mm 552 W/m2
11:33 51.3 °F /  10.7 °C 38.7 °F /  3.7 °C 30.61 in /  1036.5 hPa SSW 5.0 mph /  8 km/h 11.0 mph /  17.7 km/h 62 % 0.00 in /  0 mm 527 W/m2
11:38 51.3 °F /  10.7 °C 38.7 °F /  3.7 °C 30.61 in /  1036.5 hPa South 6.0 mph /  9.7 km/h 11.0 mph /  17.7 km/h 62 % 0.00 in /  0 mm 508 W/m2
11:43 51.6 °F /  10.9 °C 38.6 °F /  3.7 °C 30.61 in /  1036.5 hPa SSE 6.0 mph /  9.7 km/h 11.0 mph /  17.7 km/h 61 % 0.00 in /  0 mm 570 W/m2
11:48 52.0 °F /  11.1 °C 38.5 °F /  3.6 °C 30.61 in /  1036.5 hPa South 7.0 mph /  11.3 km/h 14.0 mph /  22.5 km/h 60 % 0.00 in /  0 mm 545 W/m2
11:53 52.0 °F /  11.1 °C 38.5 °F /  3.6 °C 30.61 in /  1036.5 hPa SSW 7.0 mph /  11.3 km/h 14.0 mph /  22.5 km/h 60 % 0.00 in /  0 mm 557 W/m2
11:58 52.3 °F /  11.3 °C 38.4 °F /  3.6 °C 30.61 in /  1036.5 hPa SSW 6.0 mph /  9.7 km/h 12.0 mph /  19.3 km/h 59 % 0.00 in /  0 mm 564 W/m2
12:03 52.7 °F /  11.5 °C 38.8 °F /  3.8 °C 30.60 in /  1036.1 hPa SSW 5.0 mph /  8 km/h 10.0 mph /  16.1 km/h 59 % 0.00 in /  0 mm 508 W/m2
12:09 53.1 °F /  11.7 °C 38.2 °F /  3.4 °C 30.60 in /  1036.1 hPa SW 5.0 mph /  8 km/h 9.0 mph /  14.5 km/h 57 % 0.00 in /  0 mm 455 W/m2
12:14 53.2 °F /  11.8 °C 38.8 °F /  3.8 °C 30.60 in /  1036.1 hPa SSW 5.0 mph /  8 km/h 9.0 mph /  14.5 km/h 58 % 0.00 in /  0 mm 413 W/m2
12:19 53.2 °F /  11.8 °C 38.4 °F /  3.6 °C 30.60 in /  1036.1 hPa South 4.0 mph /  6.4 km/h 9.0 mph /  14.5 km/h 57 % 0.00 in /  0 mm 371 W/m2
12:24 53.1 °F /  11.7 °C 37.8 °F /  3.2 °C 30.60 in /  1036.1 hPa SSW 5.0 mph /  8 km/h 11.0 mph /  17.7 km/h 56 % 0.00 in /  0 mm 396 W/m2
12:29 52.7 °F /  11.5 °C 37.9 °F /  3.3 °C 30.60 in /  1036.1 hPa SSW 6.0 mph /  9.7 km/h 11.0 mph /  17.7 km/h 57 % 0.00 in /  0 mm 403 W/m2
12:34 52.7 °F /  11.5 °C 37.4 °F /  3 °C 30.60 in /  1036.1 hPa SSW 6.0 mph /  9.7 km/h 12.0 mph /  19.3 km/h 56 % 0.00 in /  0 mm 388 W/m2
12:39 52.9 °F /  11.6 °C 38.5 °F /  3.6 °C 30.59 in /  1035.8 hPa SSW 5.0 mph /  8 km/h 12.0 mph /  19.3 km/h 58 % 0.00 in /  0 mm 383 W/m2
12:44 53.1 °F /  11.7 °C 37.8 °F /  3.2 °C 30.59 in /  1035.8 hPa SW 5.0 mph /  8 km/h 10.0 mph /  16.1 km/h 56 % 0.00 in /  0 mm 434 W/m2
12:49 53.2 °F /  11.8 °C 37.9 °F /  3.3 °C 30.59 in /  1035.8 hPa SW 4.0 mph /  6.4 km/h 10.0 mph /  16.1 km/h 56 % 0.00 in /  0 mm 373 W/m2
12:54 53.4 °F /  11.9 °C 38.1 °F /  3.4 °C 30.59 in /  1035.8 hPa SSW 4.0 mph /  6.4 km/h 9.0 mph /  14.5 km/h 56 % 0.00 in /  0 mm 381 W/m2
12:59 53.6 °F /  12 °C 38.3 °F /  3.5 °C 30.59 in /  1035.8 hPa SSW 5.0 mph /  8 km/h 9.0 mph /  14.5 km/h 56 % 0.00 in /  0 mm 272 W/m2
13:04 53.4 °F /  11.9 °C 38.1 °F /  3.4 °C 30.59 in /  1035.8 hPa SW 5.0 mph /  8 km/h 11.0 mph /  17.7 km/h 56 % 0.00 in /  0 mm 318 W/m2
13:09 53.4 °F /  11.9 °C 38.1 °F /  3.4 °C 30.59 in /  1035.8 hPa SSW 5.0 mph /  8 km/h 11.0 mph /  17.7 km/h 56 % 0.00 in /  0 mm 318 W/m2
13:14 53.6 °F /  12 °C 38.7 °F /  3.7 °C 30.59 in /  1035.8 hPa South 5.0 mph /  8 km/h 12.0 mph /  19.3 km/h 57 % 0.00 in /  0 mm 332 W/m2
13:19 53.6 °F /  12 °C 38.3 °F /  3.5 °C 30.59 in /  1035.8 hPa SSW 6.0 mph /  9.7 km/h 13.0 mph /  20.9 km/h 56 % 0.00 in /  0 mm 299 W/m2
13:24 53.6 °F /  12 °C 38.3 °F /  3.5 °C 30.59 in /  1035.8 hPa SSW 6.0 mph /  9.7 km/h 13.0 mph /  20.9 km/h 56 % 0.00 in /  0 mm 292 W/m2
13:29 53.6 °F /  12 °C 38.7 °F /  3.7 °C 30.59 in /  1035.8 hPa SSW 6.0 mph /  9.7 km/h 9.0 mph /  14.5 km/h 57 % 0.00 in /  0 mm 281 W/m2
13:34 53.8 °F /  12.1 °C 38.4 °F /  3.6 °C 30.59 in /  1035.8 hPa SSW 6.0 mph /  9.7 km/h 11.0 mph /  17.7 km/h 56 % 0.00 in /  0 mm 265 W/m2
13:39 53.8 °F /  12.1 °C 38.4 °F /  3.6 °C 30.59 in /  1035.8 hPa SSW 6.0 mph /  9.7 km/h 11.0 mph /  17.7 km/h 56 % 0.00 in /  0 mm 257 W/m2
13:44 53.8 °F /  12.1 °C 38.4 °F /  3.6 °C 30.59 in /  1035.8 hPa SSW 5.0 mph /  8 km/h 11.0 mph /  17.7 km/h 56 % 0.00 in /  0 mm 262 W/m2
13:49 54.0 °F /  12.2 °C 38.1 °F /  3.4 °C 30.59 in /  1035.8 hPa SW 5.0 mph /  8 km/h 10.0 mph /  16.1 km/h 55 % 0.00 in /  0 mm 264 W/m2
13:54 53.8 °F /  12.1 °C 38.4 °F /  3.6 °C 30.59 in /  1035.8 hPa SW 7.0 mph /  11.3 km/h 10.0 mph /  16.1 km/h 56 % 0.00 in /  0 mm 251 W/m2
13:55 53.8 °F /  12.1 °C 38.9 °F /  3.8 °C 30.58 in /  1035.4 hPa SW 7.0 mph /  11.3 km/h 10.0 mph /  16.1 km/h 57 % 0.00 in /  0 mm 251 W/m2
14:00 53.8 °F /  12.1 °C 38.9 °F /  3.8 °C 30.58 in /  1035.4 hPa SW 7.0 mph /  11.3 km/h 10.0 mph /  16.1 km/h 57 % 0.00 in /  0 mm 267 W/m2
14:05 53.6 °F /  12 °C 38.3 °F /  3.5 °C 30.58 in /  1035.4 hPa SW 7.0 mph /  11.3 km/h 12.0 mph /  19.3 km/h 56 % 0.00 in /  0 mm 287 W/m2
14:10 53.8 °F /  12.1 °C 38.9 °F /  3.8 °C 30.58 in /  1035.4 hPa SW 7.0 mph /  11.3 km/h 12.0 mph /  19.3 km/h 57 % 0.00 in /  0 mm 257 W/m2
14:15 53.6 °F /  12 °C 38.3 °F /  3.5 °C 30.58 in /  1035.4 hPa SW 7.0 mph /  11.3 km/h 11.0 mph /  17.7 km/h 56 % 0.00 in /  0 mm 264 W/m2
14:20 53.8 °F /  12.1 °C 38.4 °F /  3.6 °C 30.58 in /  1035.4 hPa SSW 7.0 mph /  11.3 km/h 11.0 mph /  17.7 km/h 56 % 0.00 in /  0 mm 271 W/m2
14:25 54.0 °F /  12.2 °C 38.1 °F /  3.4 °C 30.58 in /  1035.4 hPa SSW 6.0 mph /  9.7 km/h 10.0 mph /  16.1 km/h 55 % 0.00 in /  0 mm 251 W/m2
14:30 54.0 °F /  12.2 °C 38.1 °F /  3.4 °C 30.58 in /  1035.4 hPa SW 6.0 mph /  9.7 km/h 9.0 mph /  14.5 km/h 55 % 0.00 in /  0 mm 236 W/m2
14:35 54.0 °F /  12.2 °C 38.1 °F /  3.4 °C 30.58 in /  1035.4 hPa SW 3.0 mph /  4.8 km/h 7.0 mph /  11.3 km/h 55 % 0.00 in /  0 mm 279 W/m2
14:40 54.0 °F /  12.2 °C 38.6 °F /  3.7 °C 30.58 in /  1035.4 hPa SW 2.0 mph /  3.2 km/h 6.0 mph /  9.7 km/h 56 % 0.00 in /  0 mm 250 W/m2
14:45 54.1 °F /  12.3 °C 37.4 °F /  3 °C 30.58 in /  1035.4 hPa WSW 3.0 mph /  4.8 km/h 7.0 mph /  11.3 km/h 53 % 0.00 in /  0 mm 236 W/m2
14:50 54.5 °F /  12.5 °C 38.2 °F /  3.4 °C 30.58 in /  1035.4 hPa West 3.0 mph /  4.8 km/h 7.0 mph /  11.3 km/h 54 % 0.00 in /  0 mm 246 W/m2
14:55 54.7 °F /  12.6 °C 38.4 °F /  3.6 °C 30.58 in /  1035.4 hPa West 4.0 mph /  6.4 km/h 7.0 mph /  11.3 km/h 54 % 0.00 in /  0 mm 267 W/m2
15:00 54.9 °F /  12.7 °C 37.6 °F /  3.1 °C 30.58 in /  1035.4 hPa West 4.0 mph /  6.4 km/h 9.0 mph /  14.5 km/h 52 % 0.00 in /  0 mm 250 W/m2
15:05 55.0 °F /  12.8 °C 37.2 °F /  2.9 °C 30.57 in /  1035.1 hPa West 5.0 mph /  8 km/h 9.0 mph /  14.5 km/h 51 % 0.00 in /  0 mm 232 W/m2
15:10 55.0 °F /  12.8 °C 37.2 °F /  2.9 °C 30.57 in /  1035.1 hPa WNW 5.0 mph /  8 km/h 8.0 mph /  12.9 km/h 51 % 0.00 in /  0 mm 236 W/m2
15:15 55.2 °F /  12.9 °C 36.9 °F /  2.7 °C 30.57 in /  1035.1 hPa WNW 5.0 mph /  8 km/h 9.0 mph /  14.5 km/h 50 % 0.00 in /  0 mm 229 W/m2
15:20 55.2 °F /  12.9 °C 36.4 °F /  2.4 °C 30.57 in /  1035.1 hPa West 6.0 mph /  9.7 km/h 9.0 mph /  14.5 km/h 49 % 0.00 in /  0 mm 216 W/m2
15:25 55.0 °F /  12.8 °C 36.2 °F /  2.3 °C 30.57 in /  1035.1 hPa West 6.0 mph /  9.7 km/h 13.0 mph /  20.9 km/h 49 % 0.00 in /  0 mm 213 W/m2
15:30 55.0 °F /  12.8 °C 36.7 °F /  2.6 °C 30.57 in /  1035.1 hPa WNW 7.0 mph /  11.3 km/h 13.0 mph /  20.9 km/h 50 % 0.00 in /  0 mm 202 W/m2
15:35 55.0 °F /  12.8 °C 36.7 °F /  2.6 °C 30.57 in /  1035.1 hPa WNW 6.0 mph /  9.7 km/h 10.0 mph /  16.1 km/h 50 % 0.00 in /  0 mm 213 W/m2
15:40 55.0 °F /  12.8 °C 37.2 °F /  2.9 °C 30.57 in /  1035.1 hPa WNW 6.0 mph /  9.7 km/h 11.0 mph /  17.7 km/h 51 % 0.00 in /  0 mm 232 W/m2
15:45 55.0 °F /  12.8 °C 36.7 °F /  2.6 °C 30.57 in /  1035.1 hPa West 6.0 mph /  9.7 km/h 11.0 mph /  17.7 km/h 50 % 0.00 in /  0 mm 216 W/m2
15:50 54.9 °F /  12.7 °C 36.6 °F /  2.6 °C 30.57 in /  1035.1 hPa West 7.0 mph /  11.3 km/h 11.0 mph /  17.7 km/h 50 % 0.00 in /  0 mm 169 W/m2
15:55 54.7 °F /  12.6 °C 36.9 °F /  2.7 °C 30.57 in /  1035.1 hPa West 6.0 mph /  9.7 km/h 10.0 mph /  16.1 km/h 51 % 0.00 in /  0 mm 178 W/m2
16:00 54.7 °F /  12.6 °C 36.9 °F /  2.7 °C 30.56 in /  1034.8 hPa West 5.0 mph /  8 km/h 9.0 mph /  14.5 km/h 51 % 0.00 in /  0 mm 199 W/m2
16:05 54.9 °F /  12.7 °C 37.6 °F /  3.1 °C 30.56 in /  1034.8 hPa West 6.0 mph /  9.7 km/h 10.0 mph /  16.1 km/h 52 % 0.00 in /  0 mm 216 W/m2
16:10 54.9 °F /  12.7 °C 37.6 °F /  3.1 °C 30.56 in /  1034.8 hPa West 6.0 mph /  9.7 km/h 10.0 mph /  16.1 km/h 52 % 0.00 in /  0 mm 232 W/m2
16:15 54.9 °F /  12.7 °C 37.6 °F /  3.1 °C 30.56 in /  1034.8 hPa West 6.0 mph /  9.7 km/h 11.0 mph /  17.7 km/h 52 % 0.00 in /  0 mm 234 W/m2
16:20 54.9 °F /  12.7 °C 37.1 °F /  2.8 °C 30.56 in /  1034.8 hPa West 5.0 mph /  8 km/h 11.0 mph /  17.7 km/h 51 % 0.00 in /  0 mm 204 W/m2
16:25 54.9 °F /  12.7 °C 36.6 °F /  2.6 °C 30.56 in /  1034.8 hPa West 5.0 mph /  8 km/h 11.0 mph /  17.7 km/h 50 % 0.00 in /  0 mm 167 W/m2
16:30 54.9 °F /  12.7 °C 37.1 °F /  2.8 °C 30.56 in /  1034.8 hPa WNW 6.0 mph /  9.7 km/h 11.0 mph /  17.7 km/h 51 % 0.00 in /  0 mm 123 W/m2
16:35 54.7 °F /  12.6 °C 36.4 °F /  2.4 °C 30.56 in /  1034.8 hPa WNW 7.0 mph /  11.3 km/h 13.0 mph /  20.9 km/h 50 % 0.00 in /  0 mm 113 W/m2
16:40 54.7 °F /  12.6 °C 36.4 °F /  2.4 °C 30.56 in /  1034.8 hPa WNW 7.0 mph /  11.3 km/h 13.0 mph /  20.9 km/h 50 % 0.00 in /  0 mm 107 W/m2
16:45 54.3 °F /  12.4 °C 36.6 °F /  2.6 °C 30.56 in /  1034.8 hPa WNW 7.0 mph /  11.3 km/h 13.0 mph /  20.9 km/h 51 % 0.00 in /  0 mm 120 W/m2
16:50 54.1 °F /  12.3 °C 36.4 °F /  2.4 °C 30.56 in /  1034.8 hPa WNW 6.0 mph /  9.7 km/h 12.0 mph /  19.3 km/h 51 % 0.00 in /  0 mm 135 W/m2
16:55 54.1 °F /  12.3 °C 36.4 °F /  2.4 °C 30.56 in /  1034.8 hPa WNW 6.0 mph /  9.7 km/h 10.0 mph /  16.1 km/h 51 % 0.00 in /  0 mm 165 W/m2
17:00 54.0 °F /  12.2 °C 36.7 °F /  2.6 °C 30.56 in /  1034.8 hPa WNW 5.0 mph /  8 km/h 9.0 mph /  14.5 km/h 52 % 0.00 in /  0 mm 151 W/m2
17:05 54.0 °F /  12.2 °C 36.2 °F /  2.3 °C 30.56 in /  1034.8 hPa West 5.0 mph /  8 km/h 9.0 mph /  14.5 km/h 51 % 0.00 in /  0 mm 127 W/m2
17:10 54.0 °F /  12.2 °C 36.7 °F /  2.6 °C 30.56 in /  1034.8 hPa West 5.0 mph /  8 km/h 10.0 mph /  16.1 km/h 52 % 0.00 in /  0 mm 153 W/m2
17:15 54.1 °F /  12.3 °C 37.4 °F /  3 °C 30.56 in /  1034.8 hPa WNW 4.0 mph /  6.4 km/h 10.0 mph /  16.1 km/h 53 % 0.00 in /  0 mm 209 W/m2
17:20 54.1 °F /  12.3 °C 36.4 °F /  2.4 °C 30.56 in /  1034.8 hPa WNW 3.0 mph /  4.8 km/h 7.0 mph /  11.3 km/h 51 % 0.00 in /  0 mm 223 W/m2
17:25 54.3 °F /  12.4 °C 36.1 °F /  2.3 °C 30.56 in /  1034.8 hPa WNW 3.0 mph /  4.8 km/h 7.0 mph /  11.3 km/h 50 % 0.00 in /  0 mm 209 W/m2
17:30 54.3 °F /  12.4 °C 36.1 °F /  2.3 °C 30.56 in /  1034.8 hPa WNW 3.0 mph /  4.8 km/h 7.0 mph /  11.3 km/h 50 % 0.00 in /  0 mm 176 W/m2
17:35 54.7 °F /  12.6 °C 36.4 °F /  2.4 °C 30.56 in /  1034.8 hPa WNW 1.0 mph /  1.6 km/h 5.0 mph /  8 km/h 50 % 0.00 in /  0 mm 149 W/m2
17:41 54.5 °F /  12.5 °C 36.2 °F /  2.3 °C 30.56 in /  1034.8 hPa WSW 3.0 mph /  4.8 km/h 6.0 mph /  9.7 km/h 50 % 0.00 in /  0 mm 146 W/m2
17:46 54.3 °F /  12.4 °C 36.6 °F /  2.6 °C 30.55 in /  1034.4 hPa SW 4.0 mph /  6.4 km/h 7.0 mph /  11.3 km/h 51 % 0.00 in /  0 mm 149 W/m2
17:51 54.1 °F /  12.3 °C 36.4 °F /  2.4 °C 30.55 in /  1034.4 hPa SW 4.0 mph /  6.4 km/h 8.0 mph /  12.9 km/h 51 % 0.00 in /  0 mm 134 W/m2
17:56 54.1 °F /  12.3 °C 37.4 °F /  3 °C 30.55 in /  1034.4 hPa SW 3.0 mph /  4.8 km/h 8.0 mph /  12.9 km/h 53 % 0.00 in /  0 mm 127 W/m2
18:01 54.3 °F /  12.4 °C 37.5 °F /  3.1 °C 30.55 in /  1034.4 hPa WSW 4.0 mph /  6.4 km/h 11.0 mph /  17.7 km/h 53 % 0.00 in /  0 mm 144 W/m2
18:06 54.3 °F /  12.4 °C 37.1 °F /  2.8 °C 30.55 in /  1034.4 hPa West 7.0 mph /  11.3 km/h 11.0 mph /  17.7 km/h 52 % 0.00 in /  0 mm 149 W/m2
18:11 54.3 °F /  12.4 °C 37.1 °F /  2.8 °C 30.55 in /  1034.4 hPa West 5.0 mph /  8 km/h 10.0 mph /  16.1 km/h 52 % 0.00 in /  0 mm 137 W/m2
18:16 54.5 °F /  12.5 °C 37.2 °F /  2.9 °C 30.55 in /  1034.4 hPa West 4.0 mph /  6.4 km/h 6.0 mph /  9.7 km/h 52 % 0.00 in /  0 mm 128 W/m2
18:21 54.5 °F /  12.5 °C 38.2 °F /  3.4 °C 30.55 in /  1034.4 hPa WNW 3.0 mph /  4.8 km/h 7.0 mph /  11.3 km/h 54 % 0.00 in /  0 mm 120 W/m2
18:26 54.5 °F /  12.5 °C 38.2 °F /  3.4 °C 30.55 in /  1034.4 hPa WNW 2.0 mph /  3.2 km/h 7.0 mph /  11.3 km/h 54 % 0.00 in /  0 mm 105 W/m2
18:31 54.5 °F /  12.5 °C 37.7 °F /  3.2 °C 30.55 in /  1034.4 hPa West 3.0 mph /  4.8 km/h 7.0 mph /  11.3 km/h 53 % 0.00 in /  0 mm 100 W/m2
18:36 54.3 °F /  12.4 °C 38.0 °F /  3.3 °C 30.55 in /  1034.4 hPa WSW 5.0 mph /  8 km/h 9.0 mph /  14.5 km/h 54 % 0.00 in /  0 mm 86 W/m2
18:41 54.3 °F /  12.4 °C 38.5 °F /  3.6 °C 30.55 in /  1034.4 hPa WSW 5.0 mph /  8 km/h 9.0 mph /  14.5 km/h 55 % 0.00 in /  0 mm 74 W/m2
18:46 54.3 °F /  12.4 °C 38.5 °F /  3.6 °C 30.55 in /  1034.4 hPa West 5.0 mph /  8 km/h 8.0 mph /  12.9 km/h 55 % 0.00 in /  0 mm 67 W/m2
18:51 54.3 °F /  12.4 °C 38.9 °F /  3.8 °C 30.55 in /  1034.4 hPa WNW 4.0 mph /  6.4 km/h 8.0 mph /  12.9 km/h 56 % 0.00 in /  0 mm 54 W/m2
18:56 54.3 °F /  12.4 °C 39.4 °F /  4.1 °C 30.55 in /  1034.4 hPa WNW 4.0 mph /  6.4 km/h 6.0 mph /  9.7 km/h 57 % 0.00 in /  0 mm 70 W/m2
19:01 54.1 °F /  12.3 °C 38.8 °F /  3.8 °C 30.55 in /  1034.4 hPa West 4.0 mph /  6.4 km/h 9.0 mph /  14.5 km/h 56 % 0.00 in /  0 mm 67 W/m2
19:06 54.1 °F /  12.3 °C 38.3 °F /  3.5 °C 30.55 in /  1034.4 hPa West 6.0 mph /  9.7 km/h 11.0 mph /  17.7 km/h 55 % 0.00 in /  0 mm 47 W/m2
19:11 54.0 °F /  12.2 °C 38.6 °F /  3.7 °C 30.55 in /  1034.4 hPa West 7.0 mph /  11.3 km/h 11.0 mph /  17.7 km/h 56 % 0.00 in /  0 mm 40 W/m2
19:16 53.8 °F /  12.1 °C 38.4 °F /  3.6 °C 30.55 in /  1034.4 hPa West 6.0 mph /  9.7 km/h 11.0 mph /  17.7 km/h 56 % 0.00 in /  0 mm 30 W/m2
19:21 53.8 °F /  12.1 °C 38.9 °F /  3.8 °C 30.55 in /  1034.4 hPa West 5.0 mph /  8 km/h 8.0 mph /  12.9 km/h 57 % 0.00 in /  0 mm 25 W/m2
19:26 53.6 °F /  12 °C 39.2 °F /  4 °C 30.55 in /  1034.4 hPa WNW 4.0 mph /  6.4 km/h 8.0 mph /  12.9 km/h 58 % 0.00 in /  0 mm 26 W/m2
19:31 53.4 °F /  11.9 °C 38.6 °F /  3.7 °C 30.55 in /  1034.4 hPa West 4.0 mph /  6.4 km/h 8.0 mph /  12.9 km/h 57 % 0.00 in /  0 mm 21 W/m2
19:36 53.4 °F /  11.9 °C 39.0 °F /  3.9 °C 30.55 in /  1034.4 hPa West 3.0 mph /  4.8 km/h 7.0 mph /  11.3 km/h 58 % 0.00 in /  0 mm 19 W/m2
19:41 53.2 °F /  11.8 °C 38.8 °F /  3.8 °C 30.55 in /  1034.4 hPa West 2.0 mph /  3.2 km/h 5.0 mph /  8 km/h 58 % 0.00 in /  0 mm 16 W/m2
19:46 53.2 °F /  11.8 °C 39.3 °F /  4.1 °C 30.55 in /  1034.4 hPa West 2.0 mph /  3.2 km/h 5.0 mph /  8 km/h 59 % 0.00 in /  0 mm 14 W/m2
19:51 53.1 °F /  11.7 °C 39.1 °F /  3.9 °C 30.55 in /  1034.4 hPa West 2.0 mph /  3.2 km/h 7.0 mph /  11.3 km/h 59 % 0.00 in /  0 mm 12 W/m2
19:56 53.1 °F /  11.7 °C 39.1 °F /  3.9 °C 30.55 in /  1034.4 hPa West 3.0 mph /  4.8 km/h 7.0 mph /  11.3 km/h 59 % 0.00 in /  0 mm 11 W/m2
20:01 52.9 °F /  11.6 °C 39.4 °F /  4.1 °C 30.55 in /  1034.4 hPa West 2.0 mph /  3.2 km/h 7.0 mph /  11.3 km/h 60 % 0.00 in /  0 mm 7 W/m2
20:06 52.9 °F /  11.6 °C 39.4 °F /  4.1 °C 30.55 in /  1034.4 hPa West 2.0 mph /  3.2 km/h 6.0 mph /  9.7 km/h 60 % 0.00 in /  0 mm 0 W/m2
20:11 52.7 °F /  11.5 °C 39.2 °F /  4 °C 30.56 in /  1034.8 hPa West 2.0 mph /  3.2 km/h 6.0 mph /  9.7 km/h 60 % 0.00 in /  0 mm 0 W/m2
20:16 52.5 °F /  11.4 °C 39.5 °F /  4.2 °C 30.56 in /  1034.8 hPa West 1.0 mph /  1.6 km/h 6.0 mph /  9.7 km/h 61 % 0.00 in /  0 mm 0 W/m2
20:21 52.5 °F /  11.4 °C 39.9 °F /  4.4 °C 30.56 in /  1034.8 hPa Calm   2.0 mph /  3.2 km/h 62 % 0.00 in /  0 mm 0 W/m2
20:26 52.3 °F /  11.3 °C 39.7 °F /  4.3 °C 30.56 in /  1034.8 hPa Calm   1.0 mph /  1.6 km/h 62 % 0.00 in /  0 mm 0 W/m2
20:31 52.3 °F /  11.3 °C 39.7 °F /  4.3 °C 30.56 in /  1034.8 hPa Calm   2.0 mph /  3.2 km/h 62 % 0.00 in /  0 mm 0 W/m2
20:36 52.2 °F /  11.2 °C 39.5 °F /  4.2 °C 30.56 in /  1034.8 hPa Calm   2.0 mph /  3.2 km/h 62 % 0.00 in /  0 mm 0 W/m2
20:41 52.0 °F /  11.1 °C 39.8 °F /  4.3 °C 30.56 in /  1034.8 hPa Calm   2.0 mph /  3.2 km/h 63 % 0.00 in /  0 mm 0 W/m2
20:47 52.0 °F /  11.1 °C 39.8 °F /  4.3 °C 30.56 in /  1034.8 hPa Calm     63 % 0.00 in /  0 mm 0 W/m2
20:52 51.8 °F /  11 °C 40.0 °F /  4.4 °C 30.56 in /  1034.8 hPa Calm     64 % 0.00 in /  0 mm 0 W/m2
20:57 51.6 °F /  10.9 °C 40.2 °F /  4.6 °C 30.56 in /  1034.8 hPa Calm     65 % 0.00 in /  0 mm 0 W/m2
21:02 51.6 °F /  10.9 °C 40.2 °F /  4.6 °C 30.56 in /  1034.8 hPa Calm     65 % 0.00 in /  0 mm 0 W/m2
21:07 51.4 °F /  10.8 °C 40.1 °F /  4.5 °C 30.56 in /  1034.8 hPa Calm     65 % 0.00 in /  0 mm 0 W/m2
21:12 51.3 °F /  10.7 °C 40.3 °F /  4.6 °C 30.56 in /  1034.8 hPa Calm     66 % 0.00 in /  0 mm 0 W/m2
21:17 51.3 °F /  10.7 °C 40.3 °F /  4.6 °C 30.56 in /  1034.8 hPa Calm     66 % 0.00 in /  0 mm 0 W/m2
21:22 51.3 °F /  10.7 °C 40.7 °F /  4.8 °C 30.56 in /  1034.8 hPa Calm     67 % 0.00 in /  0 mm 0 W/m2
21:27 51.1 °F /  10.6 °C 40.1 °F /  4.5 °C 30.56 in /  1034.8 hPa Calm     66 % 0.00 in /  0 mm 0 W/m2
21:32 51.1 °F /  10.6 °C 40.1 °F /  4.5 °C 30.56 in /  1034.8 hPa Calm     66 % 0.00 in /  0 mm 0 W/m2
21:37 50.9 °F /  10.5 °C 40.3 °F /  4.6 °C 30.56 in /  1034.8 hPa Calm     67 % 0.00 in /  0 mm 0 W/m2
21:42 50.9 °F /  10.5 °C 40.3 °F /  4.6 °C 30.56 in /  1034.8 hPa Calm   1.0 mph /  1.6 km/h 67 % 0.00 in /  0 mm 0 W/m2
21:47 50.7 °F /  10.4 °C 40.2 °F /  4.6 °C 30.56 in /  1034.8 hPa Calm   3.0 mph /  4.8 km/h 67 % 0.00 in /  0 mm 0 W/m2
21:52 50.7 °F /  10.4 °C 40.5 °F /  4.7 °C 30.57 in /  1035.1 hPa Calm   3.0 mph /  4.8 km/h 68 % 0.00 in /  0 mm 0 W/m2
21:57 50.7 °F /  10.4 °C 40.5 °F /  4.7 °C 30.57 in /  1035.1 hPa Calm   1.0 mph /  1.6 km/h 68 % 0.00 in /  0 mm 0 W/m2
22:02 50.7 °F /  10.4 °C 40.5 °F /  4.7 °C 30.57 in /  1035.1 hPa Calm   1.0 mph /  1.6 km/h 68 % 0.00 in /  0 mm 0 W/m2
22:07 50.5 °F /  10.3 °C 40.4 °F /  4.7 °C 30.56 in /  1034.8 hPa Calm     68 % 0.00 in /  0 mm 0 W/m2
22:12 50.5 °F /  10.3 °C 40.4 °F /  4.7 °C 30.57 in /  1035.1 hPa Calm     68 % 0.00 in /  0 mm 0 W/m2
22:17 50.5 °F /  10.3 °C 40.7 °F /  4.8 °C 30.57 in /  1035.1 hPa Calm     69 % 0.00 in /  0 mm 0 W/m2
22:22 50.4 °F /  10.2 °C 40.6 °F /  4.8 °C 30.57 in /  1035.1 hPa Calm     69 % 0.00 in /  0 mm 0 W/m2
22:27 50.4 °F /  10.2 °C 40.6 °F /  4.8 °C 30.57 in /  1035.1 hPa Calm     69 % 0.00 in /  0 mm 0 W/m2
22:32 50.4 °F /  10.2 °C 40.6 °F /  4.8 °C 30.57 in /  1035.1 hPa Calm     69 % 0.00 in /  0 mm 0 W/m2
22:37 50.2 °F /  10.1 °C 40.8 °F /  4.9 °C 30.56 in /  1034.8 hPa Calm     70 % 0.00 in /  0 mm 0 W/m2
22:42 50.2 °F /  10.1 °C 41.1 °F /  5.1 °C 30.56 in /  1034.8 hPa Calm     71 % 0.00 in /  0 mm 0 W/m2
22:48 50.0 °F /  10 °C 41.0 °F /  5 °C 30.56 in /  1034.8 hPa Calm     71 % 0.00 in /  0 mm 0 W/m2
22:53 49.8 °F /  9.9 °C 41.2 °F /  5.1 °C 30.57 in /  1035.1 hPa Calm     72 % 0.00 in /  0 mm 0 W/m2
22:58 49.6 °F /  9.8 °C 41.0 °F /  5 °C 30.57 in /  1035.1 hPa Calm     72 % 0.00 in /  0 mm 0 W/m2
23:03 49.5 °F /  9.7 °C 40.8 °F /  4.9 °C 30.57 in /  1035.1 hPa Calm     72 % 0.00 in /  0 mm 0 W/m2
23:08 49.3 °F /  9.6 °C 41.0 °F /  5 °C 30.57 in /  1035.1 hPa Calm     73 % 0.00 in /  0 mm 0 W/m2
23:13 49.3 °F /  9.6 °C 41.0 °F /  5 °C 30.57 in /  1035.1 hPa Calm     73 % 0.00 in /  0 mm 0 W/m2
23:18 49.3 °F /  9.6 °C 41.0 °F /  5 °C 30.57 in /  1035.1 hPa Calm     73 % 0.00 in /  0 mm 0 W/m2
23:23 49.1 °F /  9.5 °C 41.2 °F /  5.1 °C 30.57 in /  1035.1 hPa Calm     74 % 0.00 in /  0 mm 0 W/m2
23:28 49.1 °F /  9.5 °C 41.2 °F /  5.1 °C 30.56 in /  1034.8 hPa Calm     74 % 0.00 in /  0 mm 0 W/m2
23:33 49.1 °F /  9.5 °C 41.2 °F /  5.1 °C 30.56 in /  1034.8 hPa Calm     74 % 0.00 in /  0 mm 0 W/m2
23:38 49.1 °F /  9.5 °C 41.2 °F /  5.1 °C 30.56 in /  1034.8 hPa Calm     74 % 0.00 in /  0 mm 0 W/m2
23:43 48.9 °F /  9.4 °C 41.0 °F /  5 °C 30.56 in /  1034.8 hPa Calm     74 % 0.00 in /  0 mm 0 W/m2
23:48 48.9 °F /  9.4 °C 41.0 °F /  5 °C 30.56 in /  1034.8 hPa Calm     74 % 0.00 in /  0 mm 0 W/m2
23:53 48.7 °F /  9.3 °C 41.2 °F /  5.1 °C 30.56 in /  1034.8 hPa Calm   1.0 mph /  1.6 km/h 75 % 0.00 in /  0 mm 0 W/m2
23:58 48.7 °F /  9.3 °C 41.5 °F /  5.3 °C 30.56 in /  1034.8 hPa Calm   1.0 mph /  1.6 km/h 76 % 0.00 in /  0 mm 0 W/m2
Delerius-Weather
Compliments of Weather Underground - 2.25 mb

Data updates at regular intervals.